createdAt,value
2018-11-27T00:00:30.361Z,94.57
2018-11-27T00:02:58.547Z,95.46
2018-11-27T00:05:26.031Z,95.58
2018-11-27T00:07:53.326Z,95.16
2018-11-27T00:10:20.564Z,95.51
2018-11-27T00:12:47.840Z,95.33
2018-11-27T00:15:15.090Z,95.32
2018-11-27T00:17:42.390Z,94.42
2018-11-27T00:20:10.615Z,94.82
2018-11-27T00:22:38.161Z,95.50
2018-11-27T00:25:07.894Z,95.75
2018-11-27T00:27:35.150Z,94.72
2018-11-27T00:30:02.427Z,95.50
2018-11-27T00:32:29.586Z,95.71
2018-11-27T00:34:56.977Z,95.74
2018-11-27T00:37:24.244Z,96.06
2018-11-27T00:39:51.408Z,95.93
2018-11-27T00:42:18.784Z,96.67
2018-11-27T00:44:46.056Z,95.84
2018-11-27T00:47:13.308Z,96.16
2018-11-27T00:49:40.595Z,95.75
2018-11-27T00:52:07.803Z,95.11
2018-11-27T00:54:35.062Z,95.75
2018-11-27T00:57:02.317Z,95.50
2018-11-27T00:59:30.481Z,95.15
2018-11-27T01:01:57.837Z,95.09
2018-11-27T01:04:25.138Z,95.13
2018-11-27T01:06:52.436Z,95.16
2018-11-27T01:09:19.679Z,95.42
2018-11-27T01:11:46.951Z,96.09
2018-11-27T01:14:14.182Z,95.09
2018-11-27T01:16:41.448Z,95.46
2018-11-27T01:19:08.693Z,95.04
2018-11-27T01:21:36.538Z,94.83
2018-11-27T01:24:03.911Z,94.96
2018-11-27T01:26:31.205Z,95.02
2018-11-27T01:28:58.409Z,95.09
2018-11-27T01:31:25.670Z,95.22
2018-11-27T01:33:52.888Z,94.96
2018-11-27T01:36:20.149Z,94.46
2018-11-27T01:38:47.417Z,94.73
2018-11-27T01:41:14.690Z,94.36
2018-11-27T01:43:41.894Z,94.25
2018-11-27T01:46:09.195Z,95.22
2018-11-27T01:48:36.455Z,94.53
2018-11-27T01:51:03.771Z,95.06
2018-11-27T01:53:31.130Z,95.07
2018-11-27T01:55:58.352Z,94.76
2018-11-27T01:58:28.934Z,94.20
2018-11-27T02:01:01.367Z,94.96
2018-11-27T02:03:28.602Z,94.95
2018-11-27T02:05:55.812Z,95.27
2018-11-27T02:08:23.099Z,95.93
2018-11-27T02:10:50.589Z,95.28
2018-11-27T02:13:17.865Z,95.92
2018-11-27T02:15:45.200Z,94.91
2018-11-27T02:18:12.490Z,95.89
2018-11-27T02:20:39.728Z,95.76
2018-11-27T02:23:07.208Z,95.65
2018-11-27T02:25:34.427Z,96.20
2018-11-27T02:28:01.662Z,96.47
2018-11-27T02:30:28.900Z,97.05
2018-11-27T02:32:56.269Z,96.14
2018-11-27T02:35:26.104Z,95.95
2018-11-27T02:37:55.292Z,96.15
2018-11-27T02:40:22.529Z,96.13
2018-11-27T02:42:49.854Z,96.23
2018-11-27T02:45:18.149Z,96.25
2018-11-27T02:47:46.004Z,96.15
2018-11-27T02:50:14.400Z,95.89
2018-11-27T02:52:41.685Z,96.15
2018-11-27T02:55:12.895Z,96.06
2018-11-27T02:57:40.314Z,95.79
2018-11-27T03:00:10.075Z,95.30
2018-11-27T03:02:37.358Z,94.59
2018-11-27T03:05:07.016Z,94.55
2018-11-27T03:07:34.264Z,94.60
2018-11-27T03:10:01.608Z,94.49
2018-11-27T03:12:28.903Z,94.99
2018-11-27T03:15:03.564Z,95.47
2018-11-27T03:17:30.810Z,95.65
2018-11-27T03:19:58.049Z,94.82
2018-11-27T03:22:25.524Z,94.61
2018-11-27T03:24:52.802Z,94.71
2018-11-27T03:27:20.088Z,94.26
2018-11-27T03:29:47.384Z,94.89
2018-11-27T03:32:14.637Z,94.42
2018-11-27T03:34:42.396Z,94.97
2018-11-27T03:37:09.831Z,95.73
2018-11-27T03:39:37.170Z,95.47
2018-11-27T03:42:04.616Z,95.37
2018-11-27T03:44:31.901Z,94.57
2018-11-27T03:46:59.064Z,94.98
2018-11-27T03:49:26.332Z,94.39
2018-11-27T03:51:53.593Z,94.22
2018-11-27T03:54:20.781Z,94.68
2018-11-27T03:56:48.048Z,94.64
2018-11-27T03:59:15.264Z,94.80
2018-11-27T04:01:42.453Z,94.12
2018-11-27T04:04:10.209Z,94.51
2018-11-27T04:06:37.043Z,95.07
2018-11-27T04:09:08.212Z,94.51
2018-11-27T04:11:35.593Z,94.89
2018-11-27T04:14:02.857Z,95.04
2018-11-27T04:16:30.144Z,94.52
2018-11-27T04:18:57.414Z,94.46
2018-11-27T04:21:24.687Z,93.84
2018-11-27T04:23:51.952Z,94.37
2018-11-27T04:26:19.183Z,94.61
2018-11-27T04:28:46.406Z,94.73
2018-11-27T04:31:13.681Z,94.06
2018-11-27T04:33:40.927Z,94.77
2018-11-27T04:36:08.201Z,94.09
2018-11-27T04:38:35.454Z,94.75
2018-11-27T04:41:02.744Z,94.76
2018-11-27T04:43:29.956Z,94.42
2018-11-27T04:45:57.247Z,94.51
2018-11-27T04:48:24.542Z,95.03
2018-11-27T04:50:51.802Z,94.31
2018-11-27T04:53:19.100Z,94.20
2018-11-27T04:55:46.342Z,94.57
2018-11-27T04:58:13.611Z,94.19
2018-11-27T05:00:40.902Z,94.66
2018-11-27T05:03:08.184Z,95.33
2018-11-27T05:05:35.441Z,94.74
2018-11-27T05:08:02.764Z,94.72
2018-11-27T05:10:30.077Z,94.52
2018-11-27T05:12:57.346Z,94.69
2018-11-27T05:15:25.564Z,94.71
2018-11-27T05:17:55.031Z,94.80
2018-11-27T05:20:22.297Z,95.08
2018-11-27T05:22:49.604Z,95.45
2018-11-27T05:25:17.714Z,95.19
2018-11-27T05:27:45.966Z,95.17
2018-11-27T05:30:21.349Z,94.82
2018-11-27T05:32:52.370Z,94.56
2018-11-27T05:35:20.967Z,94.58
2018-11-27T05:37:51.338Z,94.62
2018-11-27T05:40:22.771Z,94.68
2018-11-27T05:42:52.210Z,95.10
2018-11-27T05:45:20.332Z,95.39
2018-11-27T05:47:47.581Z,95.45
2018-11-27T05:50:16.006Z,95.68
2018-11-27T05:52:43.476Z,95.54
2018-11-27T05:55:11.571Z,95.17
2018-11-27T05:57:39.150Z,95.00
2018-11-27T06:00:19.273Z,94.56
2018-11-27T06:02:47.487Z,94.89
2018-11-27T06:05:18.677Z,96.08
2018-11-27T06:07:46.052Z,95.87
2018-11-27T06:10:15.360Z,94.95
2018-11-27T06:12:42.801Z,95.39
2018-11-27T06:15:18.105Z,95.55
2018-11-27T06:17:46.518Z,95.71
2018-11-27T06:20:16.887Z,95.91
2018-11-27T06:22:44.197Z,95.37
2018-11-27T06:25:13.718Z,95.24
2018-11-27T06:27:40.986Z,94.95
2018-11-27T06:30:13.110Z,94.66
2018-11-27T06:32:40.452Z,94.61
2018-11-27T06:35:08.962Z,94.30
2018-11-27T06:37:36.225Z,95.12
2018-11-27T06:40:06.695Z,94.31
2018-11-27T06:42:33.960Z,94.13
2018-11-27T06:45:01.337Z,94.04
2018-11-27T06:47:28.623Z,93.84
2018-11-27T06:49:56.449Z,94.62
2018-11-27T06:52:23.718Z,93.93
2018-11-27T06:54:50.957Z,94.43
2018-11-27T06:57:18.234Z,94.92
2018-11-27T06:59:45.536Z,94.39
2018-11-27T07:02:12.852Z,94.52
2018-11-27T07:04:40.049Z,94.22
2018-11-27T07:07:07.304Z,94.83
2018-11-27T07:09:34.583Z,94.66
2018-11-27T07:12:01.792Z,94.95
2018-11-27T07:14:29.062Z,93.94
2018-11-27T07:16:56.273Z,94.47
2018-11-27T07:19:23.512Z,94.56
2018-11-27T07:21:50.773Z,94.41
2018-11-27T07:24:18.126Z,94.52
2018-11-27T07:26:45.371Z,93.65
2018-11-27T07:29:16.611Z,94.35
2018-11-27T07:31:46.865Z,94.45
2018-11-27T07:34:14.337Z,95.14
2018-11-27T07:36:42.114Z,95.21
2018-11-27T07:39:09.349Z,95.39
2018-11-27T07:41:36.992Z,95.69
2018-11-27T07:44:04.948Z,95.85
2018-11-27T07:46:32.166Z,95.66
2018-11-27T07:48:59.383Z,95.41
2018-11-27T07:51:26.836Z,95.21
2018-11-27T07:54:00.182Z,94.97
2018-11-27T07:56:27.458Z,94.56
2018-11-27T07:58:54.656Z,94.71
2018-11-27T08:01:21.927Z,94.41
2018-11-27T08:03:49.245Z,94.90
2018-11-27T08:06:16.455Z,94.42
2018-11-27T08:08:43.721Z,94.10
2018-11-27T08:11:11.016Z,94.37
2018-11-27T08:13:38.337Z,94.40
2018-11-27T08:16:05.698Z,94.29
2018-11-27T08:18:32.962Z,93.74
2018-11-27T08:21:00.191Z,94.13
2018-11-27T08:23:27.447Z,93.84
2018-11-27T08:25:54.736Z,93.72
2018-11-27T08:28:21.982Z,93.95
2018-11-27T08:30:49.192Z,93.36
2018-11-27T08:33:16.455Z,93.44
2018-11-27T08:35:43.747Z,93.49
2018-11-27T08:38:12.807Z,93.45
2018-11-27T08:40:40.078Z,93.88
2018-11-27T08:43:07.477Z,94.58
2018-11-27T08:45:34.744Z,95.05
2018-11-27T08:48:02.055Z,94.85
2018-11-27T08:50:29.303Z,94.07
2018-11-27T08:53:04.195Z,94.14
2018-11-27T08:55:35.180Z,93.66
2018-11-27T08:58:02.990Z,93.75
2018-11-27T09:00:30.203Z,93.53
2018-11-27T09:02:57.495Z,93.64
2018-11-27T09:05:24.729Z,94.42
2018-11-27T09:07:51.948Z,94.36
2018-11-27T09:10:20.583Z,93.63
2018-11-27T09:12:47.858Z,93.58
2018-11-27T09:15:16.177Z,94.19
2018-11-27T09:17:47.039Z,93.64
2018-11-27T09:20:14.290Z,93.31
2018-11-27T09:22:41.594Z,94.28
2018-11-27T09:25:11.041Z,94.36
2018-11-27T09:27:38.333Z,94.32
2018-11-27T09:30:10.294Z,94.20
2018-11-27T09:32:37.573Z,94.23
2018-11-27T09:35:05.199Z,94.81
2018-11-27T09:37:32.509Z,94.31
2018-11-27T09:39:59.794Z,93.98
2018-11-27T09:42:27.103Z,93.92
2018-11-27T09:44:54.359Z,93.55
2018-11-27T09:47:21.623Z,93.45
2018-11-27T09:49:48.910Z,92.44
2018-11-27T09:52:16.197Z,93.13
2018-11-27T09:54:43.496Z,92.75
2018-11-27T09:57:10.701Z,92.60
2018-11-27T09:59:37.968Z,92.21
2018-11-27T10:02:05.569Z,92.25
2018-11-27T10:04:33.780Z,91.94
2018-11-27T10:07:01.003Z,92.34
2018-11-27T10:09:28.306Z,92.88
2018-11-27T10:11:55.566Z,92.58
2018-11-27T10:14:22.832Z,92.62
2018-11-27T10:16:50.100Z,93.21
2018-11-27T10:19:17.348Z,93.08
2018-11-27T10:21:44.695Z,93.15
2018-11-27T10:24:11.988Z,93.58
2018-11-27T10:26:39.270Z,93.46
2018-11-27T10:29:06.465Z,92.69
2018-11-27T10:31:33.741Z,92.67
2018-11-27T10:34:00.999Z,92.99
2018-11-27T10:36:28.257Z,92.54
2018-11-27T10:39:00.927Z,92.36
2018-11-27T10:41:22.712Z,91.72
2018-11-27T10:43:50.222Z,91.53
2018-11-27T10:46:17.441Z,91.17
2018-11-27T10:48:44.779Z,92.13
2018-11-27T10:51:12.041Z,91.59
2018-11-27T10:53:39.291Z,92.75
2018-11-27T10:56:06.859Z,92.45
2018-11-27T10:58:34.184Z,92.73
2018-11-27T11:01:07.058Z,91.77
2018-11-27T11:03:34.790Z,91.14
2018-11-27T11:06:02.951Z,91.41
2018-11-27T11:08:30.218Z,91.97
2018-11-27T11:10:57.446Z,92.44
2018-11-27T11:13:24.713Z,92.61
2018-11-27T11:15:51.936Z,91.36
2018-11-27T11:18:19.183Z,91.57
2018-11-27T11:20:46.448Z,91.02
2018-11-27T11:23:19.322Z,91.79
2018-11-27T11:25:46.612Z,91.93
2018-11-27T11:28:16.028Z,92.28
2018-11-27T11:30:43.291Z,92.48
2018-11-27T11:33:10.724Z,92.02
2018-11-27T11:35:43.059Z,92.36
2018-11-27T11:38:10.318Z,92.06
2018-11-27T11:40:37.519Z,92.70
2018-11-27T11:43:07.584Z,91.61
2018-11-27T11:45:34.890Z,92.50
2018-11-27T11:48:02.368Z,92.71
2018-11-27T11:50:31.769Z,91.95
2018-11-27T11:53:17.274Z,91.82
2018-11-27T11:55:45.092Z,92.52
2018-11-27T11:58:12.385Z,92.27
2018-11-27T12:00:42.720Z,91.90
2018-11-27T12:03:09.919Z,90.35
2018-11-27T12:05:37.190Z,89.47
2018-11-27T12:08:07.814Z,89.57
2018-11-27T12:10:36.714Z,90.76
2018-11-27T12:13:05.439Z,93.50
2018-11-27T12:15:32.720Z,93.84
2018-11-27T12:18:00.047Z,93.57
2018-11-27T12:20:27.364Z,93.65
2018-11-27T12:22:54.643Z,93.21
2018-11-27T12:25:24.236Z,93.16
2018-11-27T12:27:49.208Z,93.64
2018-11-27T12:30:18.609Z,93.42
2018-11-27T12:32:45.839Z,94.10
2018-11-27T12:35:13.704Z,93.50
2018-11-27T12:37:41.085Z,93.19
2018-11-27T12:40:13.770Z,92.64
2018-11-27T12:42:41.360Z,93.01
2018-11-27T12:45:10.416Z,92.23
2018-11-27T12:47:37.775Z,92.68
2018-11-27T12:50:08.864Z,92.75
2018-11-27T12:52:36.550Z,91.96
2018-11-27T12:55:04.431Z,91.85
2018-11-27T12:57:31.674Z,91.89
2018-11-27T13:00:03.998Z,92.44
2018-11-27T13:02:34.218Z,92.57
2018-11-27T13:05:01.520Z,93.34
2018-11-27T13:07:30.574Z,93.12
2018-11-27T13:09:59.128Z,92.55
2018-11-27T13:12:26.357Z,92.89
2018-11-27T13:14:53.606Z,93.26
2018-11-27T13:17:20.860Z,93.49
2018-11-27T13:19:48.119Z,92.83
2018-11-27T13:22:15.470Z,92.09
2018-11-27T13:24:42.783Z,91.93
2018-11-27T13:27:10.140Z,92.58
2018-11-27T13:29:39.765Z,91.89
2018-11-27T13:32:07.444Z,92.03
2018-11-27T13:34:38.996Z,91.69
2018-11-27T13:37:07.753Z,91.33
2018-11-27T13:39:36.950Z,91.42
2018-11-27T13:42:05.024Z,91.95
2018-11-27T13:44:32.322Z,91.94
2018-11-27T13:46:59.637Z,91.91
2018-11-27T13:49:27.813Z,92.35
2018-11-27T13:51:54.143Z,92.43
2018-11-27T13:54:22.804Z,92.58
2018-11-27T13:56:50.119Z,92.43
2018-11-27T13:59:18.509Z,92.05
2018-11-27T14:01:46.373Z,92.19
2018-11-27T14:04:13.092Z,92.45
2018-11-27T14:06:40.342Z,92.40
2018-11-27T14:09:09.049Z,92.16
2018-11-27T14:11:36.354Z,92.92
2018-11-27T14:14:04.649Z,91.98
2018-11-27T14:16:31.950Z,92.63
2018-11-27T14:18:59.218Z,92.38
2018-11-27T14:21:26.471Z,92.62
2018-11-27T14:23:53.726Z,92.48
2018-11-27T14:26:20.998Z,92.76
2018-11-27T14:28:48.244Z,92.05
2018-11-27T14:31:15.494Z,91.59
2018-11-27T14:33:42.761Z,91.76
2018-11-27T14:36:10.108Z,92.13
2018-11-27T14:38:37.479Z,91.84
2018-11-27T14:41:04.793Z,92.66
2018-11-27T14:43:32.047Z,92.34
2018-11-27T14:45:59.337Z,93.15
2018-11-27T14:48:26.572Z,92.30
2018-11-27T14:50:53.787Z,91.10
2018-11-27T14:53:21.102Z,91.12
2018-11-27T14:55:48.323Z,90.27
2018-11-27T14:58:15.569Z,92.27
2018-11-27T15:00:42.845Z,93.17
2018-11-27T15:03:10.170Z,93.22
2018-11-27T15:05:38.382Z,92.86
2018-11-27T15:08:07.893Z,93.52
2018-11-27T15:10:35.207Z,93.20
2018-11-27T15:13:02.432Z,92.25
2018-11-27T15:15:29.740Z,92.30
2018-11-27T15:17:57.039Z,92.94
2018-11-27T15:20:24.310Z,92.64
2018-11-27T15:22:51.549Z,92.59
2018-11-27T15:25:18.852Z,92.87
2018-11-27T15:27:46.215Z,92.19
2018-11-27T15:30:19.444Z,92.31
2018-11-27T15:32:46.940Z,90.62
2018-11-27T15:35:14.299Z,92.04
2018-11-27T15:37:41.567Z,92.29
2018-11-27T15:40:14.138Z,93.53
2018-11-27T15:42:41.434Z,93.77
2018-11-27T15:45:11.077Z,93.90
2018-11-27T15:47:38.359Z,93.65
2018-11-27T15:50:09.378Z,94.31
2018-11-27T15:52:36.702Z,94.34
2018-11-27T15:55:13.088Z,94.31
2018-11-27T15:57:46.433Z,94.42
2018-11-27T16:00:17.546Z,94.67
2018-11-27T16:02:45.146Z,95.31
2018-11-27T16:05:12.839Z,93.98
2018-11-27T16:07:40.072Z,93.33
2018-11-27T16:10:09.822Z,93.92
2018-11-27T16:12:39.443Z,94.18
2018-11-27T16:15:08.768Z,93.99
2018-11-27T16:17:37.776Z,94.60
2018-11-27T16:20:06.969Z,94.33
2018-11-27T16:22:34.220Z,94.22
2018-11-27T16:25:05.615Z,94.68
2018-11-27T16:27:32.859Z,94.29
2018-11-27T16:30:00.103Z,94.04
2018-11-27T16:32:27.354Z,94.07
2018-11-27T16:34:54.911Z,94.01
2018-11-27T16:37:22.152Z,93.80
2018-11-27T16:39:49.480Z,93.45
2018-11-27T16:42:16.656Z,93.76
2018-11-27T16:44:43.911Z,93.00
2018-11-27T16:47:11.165Z,92.89
2018-11-27T16:49:38.409Z,93.34
2018-11-27T16:52:05.837Z,93.60
2018-11-27T16:54:33.087Z,93.51
2018-11-27T16:57:00.297Z,94.04
2018-11-27T16:59:27.578Z,93.78
2018-11-27T17:01:54.878Z,94.02
2018-11-27T17:04:22.147Z,93.79
2018-11-27T17:06:49.866Z,93.88
2018-11-27T17:09:17.285Z,94.42
2018-11-27T17:11:44.596Z,94.22
2018-11-27T17:14:15.547Z,94.08
2018-11-27T17:16:43.052Z,93.94
2018-11-27T17:19:10.342Z,94.52
2018-11-27T17:21:37.660Z,94.12
2018-11-27T17:24:05.251Z,93.75
2018-11-27T17:26:32.528Z,93.78
2018-11-27T17:28:59.768Z,93.81
2018-11-27T17:31:27.007Z,94.28
2018-11-27T17:34:00.686Z,94.37
2018-11-27T17:36:28.009Z,93.91
2018-11-27T17:38:55.327Z,93.59
2018-11-27T17:41:22.539Z,93.93
2018-11-27T17:43:49.761Z,93.72
2018-11-27T17:46:17.021Z,93.75
2018-11-27T17:48:45.085Z,94.36
2018-11-27T17:51:12.432Z,94.32
2018-11-27T17:53:39.641Z,94.05
2018-11-27T17:56:07.555Z,93.51
2018-11-27T17:58:34.844Z,93.30
2018-11-27T18:01:02.158Z,93.97
2018-11-27T18:03:29.429Z,94.71
2018-11-27T18:05:56.700Z,94.71
2018-11-27T18:08:24.012Z,94.14
2018-11-27T18:10:51.420Z,94.21
2018-11-27T18:13:19.107Z,94.90
2018-11-27T18:15:46.439Z,94.67
2018-11-27T18:18:13.738Z,95.04
2018-11-27T18:20:40.999Z,95.65
2018-11-27T18:23:08.551Z,96.08
2018-11-27T18:25:35.780Z,96.88
2018-11-27T18:28:03.075Z,96.73
2018-11-27T18:30:30.354Z,97.28
2018-11-27T18:32:57.675Z,97.97
2018-11-27T18:35:25.282Z,97.80
2018-11-27T18:37:52.823Z,97.71
2018-11-27T18:40:20.314Z,97.71
2018-11-27T18:42:47.677Z,97.55
2018-11-27T18:45:34.176Z,97.19
2018-11-27T18:48:01.406Z,97.05
2018-11-27T18:50:31.486Z,96.72
2018-11-27T18:53:02.294Z,96.99
2018-11-27T18:55:29.570Z,96.77
2018-11-27T18:57:57.123Z,96.66
2018-11-27T19:00:25.653Z,97.14
2018-11-27T19:02:52.955Z,96.93
2018-11-27T19:05:20.267Z,96.50
2018-11-27T19:07:47.593Z,95.66
2018-11-27T19:10:31.886Z,95.50
2018-11-27T19:12:59.296Z,95.14
2018-11-27T19:15:44.711Z,94.83
2018-11-27T19:18:14.562Z,94.60
2018-11-27T19:20:41.880Z,94.82
2018-11-27T19:23:09.199Z,95.41
2018-11-27T19:25:36.365Z,94.62
2018-11-27T19:28:03.657Z,94.13
2018-11-27T19:30:32.274Z,95.68
2018-11-27T19:32:58.184Z,96.89
2018-11-27T19:35:25.632Z,98.82
2018-11-27T19:37:52.748Z,99.81
2018-11-27T19:40:20.371Z,100.00
2018-11-27T19:42:47.736Z,100.00
2018-11-27T19:45:17.871Z,100.00
2018-11-27T19:47:45.105Z,100.00
2018-11-27T19:50:13.528Z,100.00
2018-11-27T19:52:41.690Z,100.00
2018-11-27T19:55:10.516Z,99.64
2018-11-27T19:57:39.269Z,99.56
2018-11-27T20:00:10.377Z,99.48
2018-11-27T20:02:37.673Z,99.47
2018-11-27T20:05:05.897Z,99.10
2018-11-27T20:07:33.031Z,98.79
2018-11-27T20:10:05.352Z,98.60
2018-11-27T20:12:32.649Z,98.38
2018-11-27T20:15:01.254Z,98.04
2018-11-27T20:17:31.255Z,97.41
2018-11-27T20:19:58.538Z,96.72
2018-11-27T20:22:29.205Z,96.36
2018-11-27T20:24:56.453Z,95.75
2018-11-27T20:27:23.774Z,95.10
2018-11-27T20:29:51.107Z,95.38
2018-11-27T20:32:18.345Z,95.06
2018-11-27T20:34:48.802Z,95.43
2018-11-27T20:37:16.425Z,95.43
2018-11-27T20:39:43.644Z,95.33
2018-11-27T20:42:10.964Z,95.30
2018-11-27T20:44:40.294Z,95.49
2018-11-27T20:47:07.634Z,94.68
2018-11-27T20:49:34.854Z,94.15
2018-11-27T20:52:02.466Z,94.44
2018-11-27T20:54:29.648Z,94.57
2018-11-27T20:56:56.906Z,94.93
2018-11-27T20:59:24.186Z,94.72
2018-11-27T21:01:51.459Z,95.09
2018-11-27T21:04:18.727Z,94.98
2018-11-27T21:06:46.057Z,95.29
2018-11-27T21:09:13.346Z,95.04
2018-11-27T21:11:40.902Z,94.49
2018-11-27T21:14:08.147Z,94.56
2018-11-27T21:16:35.372Z,94.74
2018-11-27T21:19:02.652Z,94.65
2018-11-27T21:21:29.860Z,94.33
2018-11-27T21:23:57.072Z,94.08
2018-11-27T21:26:24.306Z,94.74
2018-11-27T21:28:52.542Z,94.98
2018-11-27T21:31:24.148Z,94.81
2018-11-27T21:33:47.293Z,94.61
2018-11-27T21:36:14.578Z,94.30
2018-11-27T21:38:41.854Z,95.15
2018-11-27T21:41:09.172Z,95.59
2018-11-27T21:43:36.429Z,95.74
2018-11-27T21:46:03.897Z,95.34
2018-11-27T21:48:31.158Z,95.52
2018-11-27T21:51:01.333Z,95.91
2018-11-27T21:53:29.106Z,95.89
2018-11-27T21:55:56.372Z,95.58
2018-11-27T21:58:23.633Z,95.55
2018-11-27T22:00:51.065Z,95.61
2018-11-27T22:03:18.307Z,95.39
2018-11-27T22:05:45.534Z,95.54
2018-11-27T22:08:12.772Z,95.22
2018-11-27T22:10:40.046Z,95.05
2018-11-27T22:13:09.240Z,94.86
2018-11-27T22:15:38.919Z,95.20
2018-11-27T22:18:07.240Z,95.52
2018-11-27T22:20:34.491Z,95.56
2018-11-27T22:23:01.778Z,95.64
2018-11-27T22:25:28.948Z,95.67
2018-11-27T22:27:56.289Z,95.98
2018-11-27T22:30:23.556Z,96.31
2018-11-27T22:32:51.835Z,96.25
2018-11-27T22:35:19.122Z,96.23
2018-11-27T22:37:46.384Z,96.68
2018-11-27T22:40:14.636Z,97.06
2018-11-27T22:42:42.089Z,96.99
2018-11-27T22:45:11.499Z,96.83
2018-11-27T22:47:38.791Z,96.97
2018-11-27T22:50:09.301Z,96.91
2018-11-27T22:52:36.711Z,97.30
2018-11-27T22:55:03.972Z,97.36
2018-11-27T22:57:31.749Z,97.35
2018-11-27T22:59:58.979Z,97.41
2018-11-27T23:02:26.238Z,97.38
2018-11-27T23:04:53.547Z,96.66
2018-11-27T23:07:26.452Z,96.57
2018-11-27T23:09:53.756Z,96.59
2018-11-27T23:12:21.058Z,96.54
2018-11-27T23:14:48.349Z,96.83
2018-11-27T23:17:15.566Z,96.45
2018-11-27T23:19:42.848Z,96.62
2018-11-27T23:22:10.186Z,96.44
2018-11-27T23:24:37.445Z,96.56
2018-11-27T23:27:04.761Z,96.14
2018-11-27T23:29:31.988Z,96.03
2018-11-27T23:31:59.394Z,95.96
2018-11-27T23:34:26.684Z,95.60
2018-11-27T23:36:53.906Z,95.57
2018-11-27T23:39:21.121Z,95.17
2018-11-27T23:41:48.563Z,95.59
2018-11-27T23:44:16.012Z,95.34
2018-11-27T23:46:43.259Z,95.21
2018-11-27T23:49:10.494Z,95.01
2018-11-27T23:51:37.780Z,95.14
2018-11-27T23:54:05.362Z,94.92
2018-11-27T23:56:32.615Z,94.69
2018-11-27T23:58:59.897Z,95.09
